sensor_id;sensor_type;location;lat;lon;timestamp;pressure;altitude;pressure_sealevel;temperature;humidity
50867;BME280;36839;51.946;21.002;2023-03-01T00:01:05;101448.39;;;-5.96;100.00
50867;BME280;36839;51.946;21.002;2023-03-01T00:03:33;101447.82;;;-6.00;100.00
50867;BME280;36839;51.946;21.002;2023-03-01T00:06:02;101449.21;;;-6.05;100.00
50867;BME280;36839;51.946;21.002;2023-03-01T00:08:29;101453.00;;;-6.12;100.00
50867;BME280;36839;51.946;21.002;2023-03-01T00:11:01;101456.70;;;-6.15;100.00
50867;BME280;36839;51.946;21.002;2023-03-01T00:13:29;101460.48;;;-6.18;100.00
50867;BME280;36839;51.946;21.002;2023-03-01T00:15:56;101466.81;;;-6.16;100.00
50867;BME280;36839;51.946;21.002;2023-03-01T00:18:26;101468.27;;;-6.14;100.00
50867;BME280;36839;51.946;21.002;2023-03-01T00:20:54;101472.27;;;-6.11;100.00
50867;BME280;36839;51.946;21.002;2023-03-01T00:23:22;101473.49;;;-6.06;100.00
50867;BME280;36839;51.946;21.002;2023-03-01T00:25:50;101468.30;;;-6.00;100.00
50867;BME280;36839;51.946;21.002;2023-03-01T00:28:17;101461.50;;;-5.96;100.00
50867;BME280;36839;51.946;21.002;2023-03-01T00:30:45;101456.54;;;-5.97;100.00
50867;BME280;36839;51.946;21.002;2023-03-01T00:33:12;101451.36;;;-5.97;100.00
50867;BME280;36839;51.946;21.002;2023-03-01T00:35:39;101448.90;;;-5.98;100.00
50867;BME280;36839;51.946;21.002;2023-03-01T00:38:07;101440.66;;;-6.00;100.00
50867;BME280;36839;51.946;21.002;2023-03-01T00:40:36;101438.69;;;-6.03;100.00
50867;BME280;36839;51.946;21.002;2023-03-01T00:43:03;101438.98;;;-6.08;100.00
50867;BME280;36839;51.946;21.002;2023-03-01T00:45:30;101435.39;;;-6.09;100.00
50867;BME280;36839;51.946;21.002;2023-03-01T00:47:57;101430.59;;;-6.10;100.00
50867;BME280;36839;51.946;21.002;2023-03-01T00:50:25;101431.96;;;-6.11;100.00
50867;BME280;36839;51.946;21.002;2023-03-01T00:52:54;101430.13;;;-6.13;100.00
50867;BME280;36839;51.946;21.002;2023-03-01T00:55:22;101424.38;;;-6.12;100.00
50867;BME280;36839;51.946;21.002;2023-03-01T00:57:49;101417.98;;;-6.11;100.00
50867;BME280;36839;51.946;21.002;2023-03-01T01:00:18;101418.02;;;-6.08;100.00
50867;BME280;36839;51.946;21.002;2023-03-01T01:02:45;101420.20;;;-6.06;100.00
50867;BME280;36839;51.946;21.002;2023-03-01T01:05:13;101415.45;;;-6.05;100.00
50867;BME280;36839;51.946;21.002;2023-03-01T01:07:41;101410.02;;;-6.04;100.00
50867;BME280;36839;51.946;21.002;2023-03-01T01:10:09;101401.95;;;-6.02;100.00
50867;BME280;36839;51.946;21.002;2023-03-01T01:12:41;101403.00;;;-5.99;100.00
50867;BME280;36839;51.946;21.002;2023-03-01T01:15:08;101403.80;;;-5.98;100.00
50867;BME280;36839;51.946;21.002;2023-03-01T01:17:36;101397.52;;;-6.00;100.00
50867;BME280;36839;51.946;21.002;2023-03-01T01:20:05;101394.50;;;-6.03;100.00
50867;BME280;36839;51.946;21.002;2023-03-01T01:22:33;101394.22;;;-6.06;100.00
50867;BME280;36839;51.946;21.002;2023-03-01T01:25:02;101395.60;;;-6.07;100.00
50867;BME280;36839;51.946;21.002;2023-03-01T01:27:30;101397.16;;;-6.07;100.00
50867;BME280;36839;51.946;21.002;2023-03-01T01:29:56;101399.85;;;-6.05;100.00
50867;BME280;36839;51.946;21.002;2023-03-01T01:32:25;101401.61;;;-6.02;100.00
50867;BME280;36839;51.946;21.002;2023-03-01T01:34:52;101405.15;;;-6.00;100.00
50867;BME280;36839;51.946;21.002;2023-03-01T01:37:20;101398.98;;;-5.97;100.00
50867;BME280;36839;51.946;21.002;2023-03-01T01:39:47;101392.73;;;-5.95;100.00
50867;BME280;36839;51.946;21.002;2023-03-01T01:42:16;101380.28;;;-5.92;100.00
50867;BME280;36839;51.946;21.002;2023-03-01T01:44:47;101379.30;;;-5.88;100.00
50867;BME280;36839;51.946;21.002;2023-03-01T01:47:20;101376.40;;;-5.85;100.00
50867;BME280;36839;51.946;21.002;2023-03-01T01:49:51;101376.17;;;-5.83;100.00
50867;BME280;36839;51.946;21.002;2023-03-01T01:52:26;101372.33;;;-5.82;100.00
50867;BME280;36839;51.946;21.002;2023-03-01T01:54:59;101368.27;;;-5.83;100.00
50867;BME280;36839;51.946;21.002;2023-03-01T01:57:36;101364.91;;;-5.81;100.00
50867;BME280;36839;51.946;21.002;2023-03-01T02:00:08;101363.64;;;-5.79;100.00
50867;BME280;36839;51.946;21.002;2023-03-01T02:02:36;101367.70;;;-5.81;100.00
50867;BME280;36839;51.946;21.002;2023-03-01T02:05:35;101361.08;;;-5.83;100.00
50867;BME280;36839;51.946;21.002;2023-03-01T02:08:04;101361.54;;;-5.83;100.00
50867;BME280;36839;51.946;21.002;2023-03-01T02:10:33;101359.09;;;-5.86;100.00
50867;BME280;36839;51.946;21.002;2023-03-01T02:13:02;101351.20;;;-5.90;100.00
50867;BME280;36839;51.946;21.002;2023-03-01T02:15:35;101343.31;;;-5.96;100.00
50867;BME280;36839;51.946;21.002;2023-03-01T02:18:04;101342.78;;;-6.02;100.00
50867;BME280;36839;51.946;21.002;2023-03-01T02:20:54;101345.14;;;-6.07;100.00
50867;BME280;36839;51.946;21.002;2023-03-01T02:23:25;101340.68;;;-6.09;100.00
50867;BME280;36839;51.946;21.002;2023-03-01T02:28:37;101343.72;;;-6.04;100.00
50867;BME280;36839;51.946;21.002;2023-03-01T02:31:08;101343.14;;;-5.98;100.00
50867;BME280;36839;51.946;21.002;2023-03-01T02:33:54;101350.01;;;-5.92;100.00
50867;BME280;36839;51.946;21.002;2023-03-01T02:36:26;101354.50;;;-5.89;100.00
50867;BME280;36839;51.946;21.002;2023-03-01T02:38:58;101353.25;;;-5.87;100.00
50867;BME280;36839;51.946;21.002;2023-03-01T02:41:30;101354.39;;;-5.86;100.00
50867;BME280;36839;51.946;21.002;2023-03-01T02:43:58;101351.68;;;-5.85;100.00
50867;BME280;36839;51.946;21.002;2023-03-01T02:46:26;101352.08;;;-5.86;100.00
50867;BME280;36839;51.946;21.002;2023-03-01T02:48:57;101349.92;;;-5.86;100.00
50867;BME280;36839;51.946;21.002;2023-03-01T02:51:37;101345.19;;;-5.83;100.00
50867;BME280;36839;51.946;21.002;2023-03-01T02:56:53;101347.91;;;-5.85;100.00
50867;BME280;36839;51.946;21.002;2023-03-01T02:59:30;101345.00;;;-5.87;100.00
50867;BME280;36839;51.946;21.002;2023-03-01T03:01:58;101343.58;;;-5.89;100.00
50867;BME280;36839;51.946;21.002;2023-03-01T03:04:27;101344.26;;;-5.94;100.00
50867;BME280;36839;51.946;21.002;2023-03-01T03:06:54;101340.55;;;-6.01;100.00
50867;BME280;36839;51.946;21.002;2023-03-01T03:09:21;101338.14;;;-6.09;100.00
50867;BME280;36839;51.946;21.002;2023-03-01T03:11:48;101335.86;;;-6.13;100.00
50867;BME280;36839;51.946;21.002;2023-03-01T03:14:16;101338.77;;;-6.15;100.00
50867;BME280;36839;51.946;21.002;2023-03-01T03:16:46;101339.77;;;-6.15;100.00
50867;BME280;36839;51.946;21.002;2023-03-01T03:19:15;101336.91;;;-6.13;100.00
50867;BME280;36839;51.946;21.002;2023-03-01T03:21:43;101332.36;;;-6.10;100.00
50867;BME280;36839;51.946;21.002;2023-03-01T03:24:10;101330.73;;;-6.08;100.00
50867;BME280;36839;51.946;21.002;2023-03-01T03:26:37;101331.73;;;-6.05;100.00
50867;BME280;36839;51.946;21.002;2023-03-01T03:29:04;101323.02;;;-6.01;100.00
50867;BME280;36839;51.946;21.002;2023-03-01T03:31:31;101325.73;;;-6.00;100.00
50867;BME280;36839;51.946;21.002;2023-03-01T03:33:58;101328.82;;;-6.00;100.00
50867;BME280;36839;51.946;21.002;2023-03-01T03:36:26;101329.75;;;-6.00;100.00
50867;BME280;36839;51.946;21.002;2023-03-01T03:38:53;101325.03;;;-6.00;100.00
50867;BME280;36839;51.946;21.002;2023-03-01T03:41:20;101318.52;;;-5.99;100.00
50867;BME280;36839;51.946;21.002;2023-03-01T03:43:47;101315.04;;;-6.00;100.00
50867;BME280;36839;51.946;21.002;2023-03-01T03:46:15;101310.00;;;-6.00;100.00
50867;BME280;36839;51.946;21.002;2023-03-01T03:48:44;101307.41;;;-5.99;100.00
50867;BME280;36839;51.946;21.002;2023-03-01T03:51:13;101300.85;;;-5.98;100.00
50867;BME280;36839;51.946;21.002;2023-03-01T03:53:41;101293.81;;;-5.98;100.00
50867;BME280;36839;51.946;21.002;2023-03-01T03:56:08;101288.39;;;-5.97;100.00
50867;BME280;36839;51.946;21.002;2023-03-01T03:58:35;101283.24;;;-5.98;100.00
50867;BME280;36839;51.946;21.002;2023-03-01T04:01:03;101288.23;;;-5.97;100.00
50867;BME280;36839;51.946;21.002;2023-03-01T04:03:31;101290.96;;;-5.96;100.00
50867;BME280;36839;51.946;21.002;2023-03-01T04:06:00;101285.80;;;-5.96;100.00
50867;BME280;36839;51.946;21.002;2023-03-01T04:08:28;101287.60;;;-5.96;100.00
50867;BME280;36839;51.946;21.002;2023-03-01T04:11:00;101281.69;;;-5.96;100.00
50867;BME280;36839;51.946;21.002;2023-03-01T04:13:48;101279.14;;;-5.98;100.00
50867;BME280;36839;51.946;21.002;2023-03-01T04:16:15;101278.29;;;-5.99;100.00
50867;BME280;36839;51.946;21.002;2023-03-01T04:18:43;101273.59;;;-5.98;100.00
50867;BME280;36839;51.946;21.002;2023-03-01T04:21:11;101276.55;;;-5.97;100.00
50867;BME280;36839;51.946;21.002;2023-03-01T04:23:38;101281.31;;;-5.96;100.00
50867;BME280;36839;51.946;21.002;2023-03-01T04:26:06;101280.08;;;-5.94;100.00
50867;BME280;36839;51.946;21.002;2023-03-01T04:28:40;101277.60;;;-5.93;100.00
50867;BME280;36839;51.946;21.002;2023-03-01T04:31:11;101276.88;;;-5.87;100.00
50867;BME280;36839;51.946;21.002;2023-03-01T04:33:45;101272.98;;;-5.84;100.00
50867;BME280;36839;51.946;21.002;2023-03-01T04:36:15;101271.25;;;-5.83;100.00
50867;BME280;36839;51.946;21.002;2023-03-01T04:38:43;101267.95;;;-5.84;100.00
50867;BME280;36839;51.946;21.002;2023-03-01T04:41:16;101271.34;;;-5.82;100.00
50867;BME280;36839;51.946;21.002;2023-03-01T04:43:43;101274.30;;;-5.79;100.00
50867;BME280;36839;51.946;21.002;2023-03-01T04:46:13;101274.81;;;-5.77;100.00
50867;BME280;36839;51.946;21.002;2023-03-01T04:48:43;101275.38;;;-5.73;100.00
50867;BME280;36839;51.946;21.002;2023-03-01T04:51:11;101274.17;;;-5.67;100.00
50867;BME280;36839;51.946;21.002;2023-03-01T04:53:41;101280.80;;;-5.60;100.00
50867;BME280;36839;51.946;21.002;2023-03-01T04:56:09;101286.48;;;-5.55;100.00
50867;BME280;36839;51.946;21.002;2023-03-01T04:58:36;101285.52;;;-5.52;100.00
50867;BME280;36839;51.946;21.002;2023-03-01T05:01:16;101276.69;;;-5.48;100.00
50867;BME280;36839;51.946;21.002;2023-03-01T05:03:49;101267.22;;;-5.41;100.00
50867;BME280;36839;51.946;21.002;2023-03-01T05:06:18;101263.81;;;-5.35;100.00
50867;BME280;36839;51.946;21.002;2023-03-01T05:08:46;101269.73;;;-5.33;100.00
50867;BME280;36839;51.946;21.002;2023-03-01T05:11:13;101264.72;;;-5.33;100.00
50867;BME280;36839;51.946;21.002;2023-03-01T05:13:41;101258.58;;;-5.34;100.00
50867;BME280;36839;51.946;21.002;2023-03-01T05:16:09;101257.36;;;-5.39;100.00
50867;BME280;36839;51.946;21.002;2023-03-01T05:18:39;101251.70;;;-5.45;100.00
50867;BME280;36839;51.946;21.002;2023-03-01T05:21:10;101247.39;;;-5.48;100.00
50867;BME280;36839;51.946;21.002;2023-03-01T05:23:38;101251.19;;;-5.48;100.00
50867;BME280;36839;51.946;21.002;2023-03-01T05:26:08;101252.91;;;-5.47;100.00
50867;BME280;36839;51.946;21.002;2023-03-01T05:28:35;101253.15;;;-5.47;100.00
50867;BME280;36839;51.946;21.002;2023-03-01T05:31:03;101257.41;;;-5.49;100.00
50867;BME280;36839;51.946;21.002;2023-03-01T05:33:39;101251.06;;;-5.46;100.00
50867;BME280;36839;51.946;21.002;2023-03-01T05:36:09;101250.10;;;-5.36;100.00
50867;BME280;36839;51.946;21.002;2023-03-01T05:38:37;101253.41;;;-5.33;100.00
50867;BME280;36839;51.946;21.002;2023-03-01T05:41:04;101262.52;;;-5.36;100.00
50867;BME280;36839;51.946;21.002;2023-03-01T05:43:31;101267.14;;;-5.38;100.00
50867;BME280;36839;51.946;21.002;2023-03-01T05:46:01;101266.05;;;-5.34;100.00
50867;BME280;36839;51.946;21.002;2023-03-01T05:48:28;101268.64;;;-5.29;100.00
50867;BME280;36839;51.946;21.002;2023-03-01T05:50:59;101271.23;;;-5.24;100.00
50867;BME280;36839;51.946;21.002;2023-03-01T05:53:27;101276.03;;;-5.18;100.00
50867;BME280;36839;51.946;21.002;2023-03-01T05:55:54;101278.23;;;-5.10;100.00
50867;BME280;36839;51.946;21.002;2023-03-01T05:58:21;101282.45;;;-5.04;100.00
50867;BME280;36839;51.946;21.002;2023-03-01T06:00:49;101284.22;;;-4.99;100.00
50867;BME280;36839;51.946;21.002;2023-03-01T06:03:17;101285.52;;;-4.94;100.00
50867;BME280;36839;51.946;21.002;2023-03-01T06:05:45;101290.38;;;-4.89;100.00
50867;BME280;36839;51.946;21.002;2023-03-01T06:08:12;101293.74;;;-4.82;100.00
50867;BME280;36839;51.946;21.002;2023-03-01T06:10:39;101294.06;;;-4.76;100.00
50867;BME280;36839;51.946;21.002;2023-03-01T06:13:07;101297.35;;;-4.70;100.00
50867;BME280;36839;51.946;21.002;2023-03-01T06:15:34;101297.26;;;-4.63;100.00
50867;BME280;36839;51.946;21.002;2023-03-01T06:18:01;101301.42;;;-4.57;100.00
50867;BME280;36839;51.946;21.002;2023-03-01T06:20:29;101300.08;;;-4.52;100.00
50867;BME280;36839;51.946;21.002;2023-03-01T06:22:56;101301.88;;;-4.47;100.00
50867;BME280;36839;51.946;21.002;2023-03-01T06:25:24;101296.34;;;-4.42;100.00
50867;BME280;36839;51.946;21.002;2023-03-01T06:27:51;101293.79;;;-4.36;100.00
50867;BME280;36839;51.946;21.002;2023-03-01T06:30:24;101295.54;;;-4.28;100.00
50867;BME280;36839;51.946;21.002;2023-03-01T06:32:52;101292.68;;;-4.21;100.00
50867;BME280;36839;51.946;21.002;2023-03-01T06:35:19;101294.61;;;-4.13;100.00
50867;BME280;36839;51.946;21.002;2023-03-01T06:37:47;101294.79;;;-4.04;100.00
50867;BME280;36839;51.946;21.002;2023-03-01T06:40:15;101300.04;;;-3.95;100.00
50867;BME280;36839;51.946;21.002;2023-03-01T06:42:47;101300.83;;;-3.85;100.00
50867;BME280;36839;51.946;21.002;2023-03-01T06:45:14;101294.58;;;-3.74;100.00
50867;BME280;36839;51.946;21.002;2023-03-01T06:47:42;101294.45;;;-3.64;100.00
50867;BME280;36839;51.946;21.002;2023-03-01T06:50:09;101289.08;;;-3.53;100.00
50867;BME280;36839;51.946;21.002;2023-03-01T06:52:38;101285.52;;;-3.43;100.00
50867;BME280;36839;51.946;21.002;2023-03-01T06:55:06;101284.13;;;-3.31;100.00
50867;BME280;36839;51.946;21.002;2023-03-01T06:57:33;101279.05;;;-3.18;100.00
50867;BME280;36839;51.946;21.002;2023-03-01T07:00:01;101281.02;;;-3.06;100.00
50867;BME280;36839;51.946;21.002;2023-03-01T07:02:28;101280.08;;;-2.93;100.00
50867;BME280;36839;51.946;21.002;2023-03-01T07:04:55;101279.48;;;-2.80;100.00
50867;BME280;36839;51.946;21.002;2023-03-01T07:07:22;101280.27;;;-2.67;100.00
50867;BME280;36839;51.946;21.002;2023-03-01T07:09:50;101283.48;;;-2.52;100.00
50867;BME280;36839;51.946;21.002;2023-03-01T07:12:16;101279.03;;;-2.38;100.00
50867;BME280;36839;51.946;21.002;2023-03-01T07:14:44;101283.10;;;-2.23;100.00
50867;BME280;36839;51.946;21.002;2023-03-01T07:17:11;101281.41;;;-2.11;100.00
50867;BME280;36839;51.946;21.002;2023-03-01T07:19:38;101280.76;;;-1.97;100.00
50867;BME280;36839;51.946;21.002;2023-03-01T07:22:06;101279.61;;;-1.87;100.00
50867;BME280;36839;51.946;21.002;2023-03-01T07:24:34;101272.85;;;-1.76;100.00
50867;BME280;36839;51.946;21.002;2023-03-01T07:27:02;101269.77;;;-1.64;100.00
50867;BME280;36839;51.946;21.002;2023-03-01T07:29:30;101273.25;;;-1.53;100.00
50867;BME280;36839;51.946;21.002;2023-03-01T07:31:56;101273.62;;;-1.42;100.00
50867;BME280;36839;51.946;21.002;2023-03-01T07:34:24;101272.34;;;-1.30;100.00
50867;BME280;36839;51.946;21.002;2023-03-01T07:36:51;101268.94;;;-1.20;100.00
50867;BME280;36839;51.946;21.002;2023-03-01T07:39:19;101267.80;;;-1.10;100.00
50867;BME280;36839;51.946;21.002;2023-03-01T07:41:46;101265.22;;;-0.99;100.00
50867;BME280;36839;51.946;21.002;2023-03-01T07:44:13;101264.27;;;-0.91;100.00
50867;BME280;36839;51.946;21.002;2023-03-01T07:46:40;101265.48;;;-0.82;100.00
50867;BME280;36839;51.946;21.002;2023-03-01T07:49:07;101260.41;;;-0.71;100.00
50867;BME280;36839;51.946;21.002;2023-03-01T07:51:34;101260.34;;;-0.59;100.00
50867;BME280;36839;51.946;21.002;2023-03-01T07:54:01;101260.25;;;-0.49;100.00
50867;BME280;36839;51.946;21.002;2023-03-01T07:56:28;101259.40;;;-0.37;100.00
50867;BME280;36839;51.946;21.002;2023-03-01T07:58:55;101256.94;;;-0.28;100.00
50867;BME280;36839;51.946;21.002;2023-03-01T08:01:22;101249.73;;;-0.19;100.00
50867;BME280;36839;51.946;21.002;2023-03-01T08:03:50;101244.71;;;-0.08;100.00
50867;BME280;36839;51.946;21.002;2023-03-01T08:06:18;101242.50;;;0.04;100.00
50867;BME280;36839;51.946;21.002;2023-03-01T08:08:45;101243.19;;;0.15;100.00
50867;BME280;36839;51.946;21.002;2023-03-01T08:11:14;101238.14;;;0.27;100.00
50867;BME280;36839;51.946;21.002;2023-03-01T08:13:43;101243.10;;;0.39;100.00
50867;BME280;36839;51.946;21.002;2023-03-01T08:16:12;101246.37;;;0.48;100.00
50867;BME280;36839;51.946;21.002;2023-03-01T08:18:42;101246.15;;;0.59;100.00
50867;BME280;36839;51.946;21.002;2023-03-01T08:21:12;101250.48;;;0.68;100.00
50867;BME280;36839;51.946;21.002;2023-03-01T08:23:40;101250.84;;;0.81;100.00
50867;BME280;36839;51.946;21.002;2023-03-01T08:26:13;101253.16;;;0.92;100.00
50867;BME280;36839;51.946;21.002;2023-03-01T08:28:41;101251.36;;;1.03;100.00
50867;BME280;36839;51.946;21.002;2023-03-01T08:31:23;101252.02;;;1.12;100.00
50867;BME280;36839;51.946;21.002;2023-03-01T08:33:52;101243.45;;;1.23;100.00
50867;BME280;36839;51.946;21.002;2023-03-01T08:36:26;101248.61;;;1.37;100.00
50867;BME280;36839;51.946;21.002;2023-03-01T08:38:54;101252.85;;;1.49;100.00
50867;BME280;36839;51.946;21.002;2023-03-01T08:41:21;101252.98;;;1.59;100.00
50867;BME280;36839;51.946;21.002;2023-03-01T08:43:49;101255.70;;;1.70;100.00
50867;BME280;36839;51.946;21.002;2023-03-01T08:46:16;101257.12;;;1.76;98.84
50867;BME280;36839;51.946;21.002;2023-03-01T08:48:44;101260.23;;;1.82;98.10
50867;BME280;36839;51.946;21.002;2023-03-01T08:51:14;101265.88;;;1.84;95.46
50867;BME280;36839;51.946;21.002;2023-03-01T08:53:42;101267.58;;;1.87;94.28
50867;BME280;36839;51.946;21.002;2023-03-01T08:56:09;101263.05;;;1.91;94.26
50867;BME280;36839;51.946;21.002;2023-03-01T08:58:37;101263.38;;;1.97;95.70
50867;BME280;36839;51.946;21.002;2023-03-01T09:01:09;101254.88;;;2.04;97.69
50867;BME280;36839;51.946;21.002;2023-03-01T09:03:37;101251.34;;;2.13;98.97
50867;BME280;36839;51.946;21.002;2023-03-01T09:06:06;101252.36;;;2.13;99.94
50867;BME280;36839;51.946;21.002;2023-03-01T09:08:34;101254.23;;;2.18;100.00
50867;BME280;36839;51.946;21.002;2023-03-01T09:11:07;101254.73;;;2.24;100.00
50867;BME280;36839;51.946;21.002;2023-03-01T09:13:35;101246.64;;;2.33;100.00
50867;BME280;36839;51.946;21.002;2023-03-01T09:16:04;101247.25;;;2.38;100.00
50867;BME280;36839;51.946;21.002;2023-03-01T09:18:33;101250.59;;;2.44;100.00
50867;BME280;36839;51.946;21.002;2023-03-01T09:21:13;101257.75;;;2.44;100.00
50867;BME280;36839;51.946;21.002;2023-03-01T09:23:44;101264.69;;;2.51;100.00
50867;BME280;36839;51.946;21.002;2023-03-01T09:26:15;101271.69;;;2.57;99.68
50867;BME280;36839;51.946;21.002;2023-03-01T09:28:43;101269.16;;;2.64;99.61
50867;BME280;36839;51.946;21.002;2023-03-01T09:31:14;101267.44;;;2.75;98.57
50867;BME280;36839;51.946;21.002;2023-03-01T09:33:42;101259.50;;;2.88;99.74
50867;BME280;36839;51.946;21.002;2023-03-01T09:36:15;101262.61;;;2.92;98.98
50867;BME280;36839;51.946;21.002;2023-03-01T09:38:44;101257.54;;;2.93;97.32
50867;BME280;36839;51.946;21.002;2023-03-01T09:46:55;101250.58;;;3.26;97.25
50867;BME280;36839;51.946;21.002;2023-03-01T09:49:27;101245.58;;;3.42;98.33
50867;BME280;36839;51.946;21.002;2023-03-01T09:52:07;101243.23;;;3.53;97.06
50867;BME280;36839;51.946;21.002;2023-03-01T09:54:36;101240.93;;;3.57;95.70
50867;BME280;36839;51.946;21.002;2023-03-01T10:02:57;101235.11;;;3.70;95.06
50867;BME280;36839;51.946;21.002;2023-03-01T10:05:48;101233.05;;;3.78;95.24
50867;BME280;36839;51.946;21.002;2023-03-01T10:10:51;101228.26;;;3.92;96.35
50867;BME280;36839;51.946;21.002;2023-03-01T10:15:54;101218.79;;;3.90;94.25
50867;BME280;36839;51.946;21.002;2023-03-01T10:18:34;101220.05;;;3.85;93.30
50867;BME280;36839;51.946;21.002;2023-03-01T10:21:13;101222.79;;;3.84;94.46
50867;BME280;36839;51.946;21.002;2023-03-01T10:23:43;101219.26;;;3.86;94.34
50867;BME280;36839;51.946;21.002;2023-03-01T10:31:39;101197.31;;;3.96;92.53
50867;BME280;36839;51.946;21.002;2023-03-01T10:34:17;101189.75;;;4.06;95.48
50867;BME280;36839;51.946;21.002;2023-03-01T10:36:48;101187.73;;;4.12;92.03
50867;BME280;36839;51.946;21.002;2023-03-01T10:39:18;101182.08;;;4.23;94.27
50867;BME280;36839;51.946;21.002;2023-03-01T10:41:59;101175.80;;;4.30;92.31
50867;BME280;36839;51.946;21.002;2023-03-01T10:44:42;101171.33;;;4.42;92.34
50867;BME280;36839;51.946;21.002;2023-03-01T10:47:21;101168.04;;;4.43;91.56
50867;BME280;36839;51.946;21.002;2023-03-01T10:50:02;101161.37;;;4.50;92.61
50867;BME280;36839;51.946;21.002;2023-03-01T10:52:37;101163.35;;;4.56;92.35
50867;BME280;36839;51.946;21.002;2023-03-01T10:57:40;101169.17;;;4.66;91.53
50867;BME280;36839;51.946;21.002;2023-03-01T11:00:15;101165.09;;;4.65;90.83
50867;BME280;36839;51.946;21.002;2023-03-01T11:03:09;101168.42;;;4.66;93.35
50867;BME280;36839;51.946;21.002;2023-03-01T11:05:55;101168.80;;;4.60;94.19
50867;BME280;36839;51.946;21.002;2023-03-01T11:08:31;101170.21;;;4.63;95.84
50867;BME280;36839;51.946;21.002;2023-03-01T11:11:19;101171.83;;;4.61;95.46
50867;BME280;36839;51.946;21.002;2023-03-01T11:16:25;101158.88;;;4.78;95.11
50867;BME280;36839;51.946;21.002;2023-03-01T11:24:12;101155.23;;;5.00;90.78
50867;BME280;36839;51.946;21.002;2023-03-01T11:26:50;101153.08;;;5.11;91.79
50867;BME280;36839;51.946;21.002;2023-03-01T11:29:39;101145.94;;;5.23;89.79
50867;BME280;36839;51.946;21.002;2023-03-01T11:32:11;101147.90;;;5.33;90.35
50867;BME280;36839;51.946;21.002;2023-03-01T11:34:45;101143.15;;;5.34;89.25
50867;BME280;36839;51.946;21.002;2023-03-01T11:37:34;101135.17;;;5.35;89.87
50867;BME280;36839;51.946;21.002;2023-03-01T11:40:11;101131.77;;;5.47;89.50
50867;BME280;36839;51.946;21.002;2023-03-01T11:42:50;101128.96;;;5.57;88.81
50867;BME280;36839;51.946;21.002;2023-03-01T11:45:23;101130.06;;;5.62;87.76
50867;BME280;36839;51.946;21.002;2023-03-01T11:50:48;101121.80;;;5.67;87.36
50867;BME280;36839;51.946;21.002;2023-03-01T12:08:04;101124.42;;;6.13;87.62
50867;BME280;36839;51.946;21.002;2023-03-01T12:28:00;101128.50;;;6.00;85.97
50867;BME280;36839;51.946;21.002;2023-03-01T12:30:56;101125.90;;;6.04;86.51
50867;BME280;36839;51.946;21.002;2023-03-01T12:42:07;101121.81;;;6.05;91.24
50867;BME280;36839;51.946;21.002;2023-03-01T12:48:01;101118.58;;;5.79;98.42
50867;BME280;36839;51.946;21.002;2023-03-01T12:50:41;101113.54;;;5.81;98.67
50867;BME280;36839;51.946;21.002;2023-03-01T12:53:20;101111.92;;;5.83;97.50
50867;BME280;36839;51.946;21.002;2023-03-01T12:55:50;101111.80;;;5.72;97.94
50867;BME280;36839;51.946;21.002;2023-03-01T13:08:58;101101.27;;;5.70;95.93
50867;BME280;36839;51.946;21.002;2023-03-01T13:11:30;101099.34;;;5.68;96.14
50867;BME280;36839;51.946;21.002;2023-03-01T13:16:53;101094.43;;;5.72;97.12
50867;BME280;36839;51.946;21.002;2023-03-01T13:19:25;101097.27;;;5.77;95.50
50867;BME280;36839;51.946;21.002;2023-03-01T13:21:54;101091.56;;;5.82;96.03
50867;BME280;36839;51.946;21.002;2023-03-01T13:24:28;101099.97;;;5.87;95.67
50867;BME280;36839;51.946;21.002;2023-03-01T13:27:28;101097.19;;;5.85;92.59
50867;BME280;36839;51.946;21.002;2023-03-01T13:29:58;101096.05;;;5.85;92.01
50867;BME280;36839;51.946;21.002;2023-03-01T13:32:31;101087.55;;;5.92;92.55
50867;BME280;36839;51.946;21.002;2023-03-01T13:35:40;101089.49;;;5.94;92.12
50867;BME280;36839;51.946;21.002;2023-03-01T13:37:49;101084.70;;;5.93;91.28
50867;BME280;36839;51.946;21.002;2023-03-01T13:42:49;101084.56;;;5.94;91.16
50867;BME280;36839;51.946;21.002;2023-03-01T13:45:34;101085.53;;;5.95;91.31
50867;BME280;36839;51.946;21.002;2023-03-01T13:48:10;101084.56;;;5.94;91.49
50867;BME280;36839;51.946;21.002;2023-03-01T13:50:46;101078.91;;;5.92;91.26
50867;BME280;36839;51.946;21.002;2023-03-01T13:53:19;101077.03;;;6.01;91.84
50867;BME280;36839;51.946;21.002;2023-03-01T13:55:56;101071.98;;;6.03;91.72
50867;BME280;36839;51.946;21.002;2023-03-01T13:58:32;101072.45;;;5.98;92.18
50867;BME280;36839;51.946;21.002;2023-03-01T14:01:04;101069.81;;;6.02;92.24
50867;BME280;36839;51.946;21.002;2023-03-01T14:03:33;101070.25;;;6.08;92.35
50867;BME280;36839;51.946;21.002;2023-03-01T14:06:25;101071.18;;;5.98;92.38
50867;BME280;36839;51.946;21.002;2023-03-01T14:12:20;101069.31;;;5.87;93.85
50867;BME280;36839;51.946;21.002;2023-03-01T14:20:11;101061.55;;;5.89;94.50
50867;BME280;36839;51.946;21.002;2023-03-01T14:22:41;101062.18;;;5.90;93.94
50867;BME280;36839;51.946;21.002;2023-03-01T14:25:27;101058.52;;;5.96;93.24
50867;BME280;36839;51.946;21.002;2023-03-01T14:27:58;101055.61;;;6.05;93.85
50867;BME280;36839;51.946;21.002;2023-03-01T14:30:35;101053.25;;;6.05;94.18
50867;BME280;36839;51.946;21.002;2023-03-01T14:33:30;101056.31;;;6.09;94.78
50867;BME280;36839;51.946;21.002;2023-03-01T14:38:40;101054.83;;;6.15;93.03
50867;BME280;36839;51.946;21.002;2023-03-01T14:41:17;101056.92;;;6.20;93.18
50867;BME280;36839;51.946;21.002;2023-03-01T14:43:57;101056.84;;;6.18;92.00
50867;BME280;36839;51.946;21.002;2023-03-01T14:46:45;101050.09;;;6.27;92.10
50867;BME280;36839;51.946;21.002;2023-03-01T14:49:19;101044.56;;;6.29;91.45